createdAt,value
2018-07-29T00:02:14.444Z,1013.5
2018-07-29T00:07:26.607Z,1013.5
2018-07-29T00:12:26.562Z,1013.5
2018-07-29T00:17:27.287Z,1013.5
2018-07-29T00:22:26.537Z,1013.5
2018-07-29T00:27:26.348Z,1013.5
2018-07-29T00:32:26.329Z,1013.5
2018-07-29T00:37:26.546Z,1013.5
2018-07-29T00:42:26.803Z,1013.5
2018-07-29T00:47:26.531Z,1013.6
2018-07-29T00:52:39.450Z,1013.5
2018-07-29T00:57:39.395Z,1013.6
2018-07-29T01:02:39.407Z,1013.6
2018-07-29T01:07:39.175Z,1013.8
2018-07-29T01:12:39.385Z,1013.7
2018-07-29T01:17:39.324Z,1013.8
2018-07-29T01:22:39.387Z,1013.8
2018-07-29T01:27:39.589Z,1013.7
2018-07-29T01:32:39.496Z,1013.7
2018-07-29T01:37:52.730Z,1013.7
2018-07-29T01:42:52.678Z,1013.7
2018-07-29T01:47:52.529Z,1013.8
2018-07-29T01:52:52.466Z,1013.7
2018-07-29T01:57:52.687Z,1013.7
2018-07-29T02:02:52.604Z,1013.8
2018-07-29T02:07:53.359Z,1013.8
2018-07-29T02:12:53.291Z,1013.8
2018-07-29T02:17:53.020Z,1013.8
2018-07-29T02:23:05.628Z,1013.9
2018-07-29T02:28:05.351Z,1013.9
2018-07-29T02:33:05.517Z,1013.9
2018-07-29T02:38:05.545Z,1013.8
2018-07-29T02:43:05.591Z,1013.9
2018-07-29T02:48:05.378Z,1014
2018-07-29T02:53:05.523Z,1014.1
2018-07-29T02:58:08.161Z,1014.1
2018-07-29T03:03:07.897Z,1014.1
2018-07-29T03:08:20.343Z,1014.1
2018-07-29T03:13:20.042Z,1014.2
2018-07-29T03:18:20.280Z,1014.3
2018-07-29T03:23:20.195Z,1014.3
2018-07-29T03:28:20.245Z,1014.4
2018-07-29T03:33:20.054Z,1014.5
2018-07-29T03:38:20.196Z,1014.6
2018-07-29T03:43:24.177Z,1014.6
2018-07-29T03:48:23.818Z,1014.7
2018-07-29T03:53:36.401Z,1014.6
2018-07-29T03:58:36.318Z,1014.7
2018-07-29T04:03:36.385Z,1014.7
2018-07-29T04:08:36.133Z,1014.8
2018-07-29T04:13:36.133Z,1014.8
2018-07-29T04:18:36.140Z,1014.8
2018-07-29T04:23:36.144Z,1014.8
2018-07-29T04:28:40.301Z,1014.9
2018-07-29T04:33:40.052Z,1015
2018-07-29T04:38:52.771Z,1015.1
2018-07-29T04:43:52.700Z,1015
2018-07-29T04:48:52.615Z,1015
2018-07-29T04:53:52.657Z,1015.1
2018-07-29T04:58:52.710Z,1015.1
2018-07-29T05:03:52.621Z,1015.2
2018-07-29T05:08:52.667Z,1015.2
2018-07-29T05:13:58.038Z,1015.2
2018-07-29T05:18:58.159Z,1015.1
2018-07-29T05:24:08.448Z,1015.2
2018-07-29T05:29:08.368Z,1015.2
2018-07-29T05:34:08.247Z,1015.3
2018-07-29T05:39:08.169Z,1015.3
2018-07-29T05:44:08.201Z,1015.4
2018-07-29T05:49:08.941Z,1015.4
2018-07-29T05:54:08.167Z,1015.4
2018-07-29T05:59:08.684Z,1015.5
2018-07-29T06:04:08.954Z,1015.5
2018-07-29T06:09:23.549Z,1015.5
2018-07-29T06:14:23.310Z,1015.5
2018-07-29T06:19:23.298Z,1015.5
2018-07-29T06:24:23.297Z,1015.6
2018-07-29T06:29:23.297Z,1015.6
2018-07-29T06:34:23.442Z,1015.6
2018-07-29T06:39:23.307Z,1015.6
2018-07-29T06:44:23.742Z,1015.7
2018-07-29T06:49:23.662Z,1015.7
2018-07-29T06:54:35.724Z,1015.6
2018-07-29T06:59:35.447Z,1015.7
2018-07-29T07:04:35.477Z,1015.6
2018-07-29T07:09:35.484Z,1015.6
2018-07-29T07:14:35.560Z,1015.5
2018-07-29T07:19:35.495Z,1015.5
2018-07-29T07:24:35.517Z,1015.6
2018-07-29T07:29:38.335Z,1015.6
2018-07-29T07:34:38.342Z,1015.5
2018-07-29T07:39:50.219Z,1015.5
2018-07-29T07:44:50.177Z,1015.6
2018-07-29T07:49:49.958Z,1015.6
2018-07-29T07:54:49.963Z,1015.6
2018-07-29T07:59:49.933Z,1015.5
2018-07-29T08:04:49.947Z,1015.5
2018-07-29T08:09:50.009Z,1015.5
2018-07-29T08:14:49.983Z,1015.5
2018-07-29T08:19:49.980Z,1015.3
2018-07-29T08:25:03.614Z,1015.2
2018-07-29T08:30:03.206Z,1015.2
2018-07-29T08:35:03.238Z,1015.1
2018-07-29T08:40:03.219Z,1015
2018-07-29T08:45:03.629Z,1014.9
2018-07-29T08:50:03.248Z,1015
2018-07-29T08:55:03.255Z,1014.9
2018-07-29T09:00:04.637Z,1014.8
2018-07-29T09:05:04.391Z,1014.8
2018-07-29T09:10:16.639Z,1014.8
2018-07-29T09:15:16.351Z,1014.6
2018-07-29T09:20:16.344Z,1014.7
2018-07-29T09:25:16.742Z,1014.6
2018-07-29T09:30:16.866Z,1014.7
2018-07-29T09:35:16.406Z,1014.5
2018-07-29T09:40:16.892Z,1014.3
2018-07-29T09:45:18.814Z,1014.3
2018-07-29T09:50:18.322Z,1014.4
2018-07-29T09:55:28.430Z,1014.4
2018-07-29T10:00:28.148Z,1014.3
2018-07-29T10:05:28.159Z,1014.2
2018-07-29T10:10:30.926Z,1014.2
2018-07-29T10:15:28.280Z,1014.2
2018-07-29T10:20:28.208Z,1014.1
2018-07-29T10:25:28.202Z,1013.9
2018-07-29T10:30:28.333Z,1013.8
2018-07-29T10:35:28.366Z,1013.7
2018-07-29T10:40:40.300Z,1013.7
2018-07-29T10:45:40.251Z,1013.8
2018-07-29T10:50:40.039Z,1013.6
2018-07-29T10:55:40.181Z,1013.5
2018-07-29T11:00:40.253Z,1013.6
2018-07-29T11:05:40.054Z,1013.3
2018-07-29T11:10:40.025Z,1013.2
2018-07-29T11:15:43.333Z,1013.2
2018-07-29T11:20:43.129Z,1013.2
2018-07-29T11:25:55.242Z,1013.1
2018-07-29T11:30:54.963Z,1013
2018-07-29T11:35:55.346Z,1013
2018-07-29T11:40:54.982Z,1013
2018-07-29T11:45:54.977Z,1013
2018-07-29T11:50:54.971Z,1012.9
2018-07-29T11:55:55.000Z,1012.9
2018-07-29T12:00:55.412Z,1013
2018-07-29T12:05:55.188Z,1013.1
2018-07-29T12:11:07.552Z,1013
2018-07-29T12:16:07.264Z,1012.9
2018-07-29T12:21:07.427Z,1012.8
2018-07-29T12:26:07.300Z,1012.7
2018-07-29T12:31:07.284Z,1012.8
2018-07-29T12:36:07.280Z,1012.8
2018-07-29T12:41:07.283Z,1012.7
2018-07-29T12:46:09.058Z,1012.6
2018-07-29T12:51:08.757Z,1012.5
2018-07-29T12:56:21.196Z,1012.4
2018-07-29T13:01:20.916Z,1012.5
2018-07-29T13:06:20.899Z,1012.3
2018-07-29T13:11:20.939Z,1012.3
2018-07-29T13:16:20.913Z,1012.3
2018-07-29T13:21:20.933Z,1012.3
2018-07-29T13:26:20.904Z,1012.1
2018-07-29T13:31:22.405Z,1012
2018-07-29T13:36:21.826Z,1012.2
2018-07-29T13:41:33.823Z,1011.9
2018-07-29T13:46:33.561Z,1012
2018-07-29T13:51:33.580Z,1012.1
2018-07-29T13:56:33.558Z,1011.9
2018-07-29T14:01:33.576Z,1011.9
2018-07-29T14:06:33.600Z,1011.8
2018-07-29T14:11:33.615Z,1011.8
2018-07-29T14:16:33.992Z,1011.7
2018-07-29T14:21:33.751Z,1011.7
2018-07-29T14:26:46.466Z,1011.6
2018-07-29T14:31:46.118Z,1011.7
2018-07-29T14:36:46.182Z,1011.8
2018-07-29T14:41:46.258Z,1011.7
2018-07-29T14:46:46.081Z,1011.5
2018-07-29T14:51:46.098Z,1011.5
2018-07-29T14:56:46.189Z,1011.6
2018-07-29T15:01:46.110Z,1011.5
2018-07-29T15:06:46.293Z,1011.4
2018-07-29T15:11:57.974Z,1011.4
2018-07-29T15:16:57.894Z,1011.4
2018-07-29T15:21:57.711Z,1011.4
2018-07-29T15:26:57.998Z,1011.2
2018-07-29T15:31:57.702Z,1011.3
2018-07-29T15:36:57.714Z,1011.2
2018-07-29T15:41:57.707Z,1011.1
2018-07-29T15:47:01.992Z,1011.2
2018-07-29T15:52:01.708Z,1011.1
2018-07-29T15:57:14.544Z,1011.1
2018-07-29T16:02:14.271Z,1011.1
2018-07-29T16:07:14.281Z,1011.1
2018-07-29T16:12:14.288Z,1011.1
2018-07-29T16:17:14.590Z,1011.1
2018-07-29T16:22:14.255Z,1011.2
2018-07-29T16:27:14.274Z,1011.1
2018-07-29T16:32:14.580Z,1011.2
2018-07-29T16:37:14.533Z,1011.2
2018-07-29T16:42:27.783Z,1011.2
2018-07-29T16:47:27.252Z,1011.3
2018-07-29T16:52:27.087Z,1011.3
2018-07-29T16:57:27.219Z,1011.3
2018-07-29T17:02:27.260Z,1011.4
2018-07-29T17:07:27.296Z,1011.4
2018-07-29T17:12:27.101Z,1011.4
2018-07-29T17:17:27.420Z,1011.3
2018-07-29T17:22:27.156Z,1011.4
2018-07-29T17:27:40.460Z,1011.4
2018-07-29T17:32:39.957Z,1011.6
2018-07-29T17:37:39.751Z,1011.6
2018-07-29T17:42:40.138Z,1011.5
2018-07-29T17:47:39.776Z,1011.6
2018-07-29T17:52:39.881Z,1011.5
2018-07-29T17:57:39.789Z,1011.5
2018-07-29T18:02:40.105Z,1011.6
2018-07-29T18:07:40.000Z,1011.8
2018-07-29T18:12:52.523Z,1011.8
2018-07-29T18:17:52.471Z,1011.8
2018-07-29T18:22:52.705Z,1011.9
2018-07-29T18:27:52.753Z,1011.9
2018-07-29T18:32:52.483Z,1012
2018-07-29T18:37:52.390Z,1012
2018-07-29T18:42:52.434Z,1012.1
2018-07-29T18:47:53.624Z,1012.1
2018-07-29T18:52:53.121Z,1012.2
2018-07-29T18:58:05.703Z,1012.3
2018-07-29T19:03:05.536Z,1012.4
2018-07-29T19:08:05.393Z,1012.4
2018-07-29T19:13:05.676Z,1012.5
2018-07-29T19:18:05.567Z,1012.7
2018-07-29T19:23:05.620Z,1012.7
2018-07-29T19:28:06.053Z,1012.7
2018-07-29T19:33:08.817Z,1012.9
2018-07-29T19:38:08.676Z,1012.8
2018-07-29T19:43:21.029Z,1012.9
2018-07-29T19:48:20.949Z,1012.9
2018-07-29T19:53:20.729Z,1012.9
2018-07-29T19:58:20.911Z,1013
2018-07-29T20:03:20.735Z,1013
2018-07-29T20:08:21.007Z,1013
2018-07-29T20:13:20.888Z,1013.1
2018-07-29T20:18:26.812Z,1013.1
2018-07-29T20:23:22.311Z,1013.2
2018-07-29T20:28:36.334Z,1013.2
2018-07-29T20:33:35.877Z,1013.2
2018-07-29T20:38:36.450Z,1013.2
2018-07-29T20:43:36.102Z,1013.3
2018-07-29T20:48:36.085Z,1013.4
2018-07-29T20:53:35.905Z,1013.6
2018-07-29T20:58:36.054Z,1013.6
2018-07-29T21:03:41.542Z,1013.5
2018-07-29T21:08:38.483Z,1013.6
2018-07-29T21:13:53.751Z,1013.6
2018-07-29T21:18:53.607Z,1013.6
2018-07-29T21:23:53.452Z,1013.7
2018-07-29T21:28:53.476Z,1013.7
2018-07-29T21:33:53.510Z,1013.7
2018-07-29T21:38:53.481Z,1013.7
2018-07-29T21:43:53.415Z,1013.7
2018-07-29T21:48:53.484Z,1013.7
2018-07-29T21:53:53.632Z,1013.8
2018-07-29T21:59:04.930Z,1013.8
2018-07-29T22:04:04.857Z,1013.8
2018-07-29T22:09:04.645Z,1013.8
2018-07-29T22:14:04.852Z,1013.8
2018-07-29T22:19:04.656Z,1013.8
2018-07-29T22:24:04.808Z,1014
2018-07-29T22:29:04.656Z,1014
2018-07-29T22:34:05.354Z,1014
2018-07-29T22:39:05.181Z,1014
2018-07-29T22:44:17.708Z,1014
2018-07-29T22:49:17.559Z,1014
2018-07-29T22:54:17.437Z,1014
2018-07-29T22:59:17.441Z,1014
2018-07-29T23:04:17.447Z,1014
2018-07-29T23:09:17.436Z,1014
2018-07-29T23:14:17.994Z,1014
2018-07-29T23:19:17.660Z,1014
2018-07-29T23:24:17.588Z,1014
2018-07-29T23:29:32.676Z,1014.1
2018-07-29T23:34:32.987Z,1014
2018-07-29T23:39:32.547Z,1014
2018-07-29T23:44:32.560Z,1014
2018-07-29T23:49:32.617Z,1014
2018-07-29T23:54:32.534Z,1014
2018-07-29T23:59:32.583Z,1014
